createdAt,value
2019-04-21T00:05:55.756Z,51.10
2019-04-21T00:35:48.687Z,53.70
2019-04-21T01:06:11.521Z,55.10
2019-04-21T01:36:08.427Z,56.80
2019-04-21T02:06:18.120Z,57.20
2019-04-21T02:36:39.603Z,57.80
2019-04-21T03:07:01.653Z,59.70
2019-04-21T03:37:14.119Z,60.00
2019-04-21T04:07:10.914Z,61.20
2019-04-21T05:07:27.278Z,66.40
2019-04-21T05:37:20.150Z,65.80
2019-04-21T06:07:31.562Z,59.70
2019-04-21T06:37:43.578Z,48.30
2019-04-21T07:07:43.412Z,38.80
2019-04-21T07:37:51.218Z,25.20
2019-04-21T08:07:59.083Z,21.60
2019-04-21T08:37:59.098Z,20.40
2019-04-21T09:08:07.997Z,20.50
2019-04-21T09:37:56.170Z,19.90
2019-04-21T10:07:55.174Z,22.70
2019-04-21T10:38:12.883Z,28.50
2019-04-21T11:08:12.348Z,29.40
2019-04-21T11:38:19.044Z,31.30
2019-04-21T12:08:30.268Z,31.70
2019-04-21T12:38:36.928Z,31.20
2019-04-21T13:08:43.614Z,33.30
2019-04-21T13:38:45.918Z,32.10
2019-04-21T14:08:45.366Z,32.60
2019-04-21T14:38:50.421Z,35.10
2019-04-21T15:08:55.402Z,32.60
2019-04-21T15:38:59.456Z,31.00
2019-04-21T16:09:05.117Z,34.30
2019-04-21T16:39:09.799Z,31.90
2019-04-21T17:09:14.710Z,35.10
2019-04-21T17:39:18.721Z,36.40
2019-04-21T18:09:51.754Z,36.70
2019-04-21T18:39:46.125Z,38.00
2019-04-21T19:39:56.472Z,40.60
2019-04-21T20:10:11.604Z,44.20
2019-04-21T20:40:00.124Z,46.50
2019-04-21T21:10:16.642Z,47.00
2019-04-21T21:40:28.747Z,48.90
2019-04-21T22:10:13.413Z,50.70
2019-04-21T22:40:29.537Z,54.90
2019-04-21T23:10:23.711Z,54.60
2019-04-21T23:40:29.164Z,53.10
